Terminal Aerodrome Forecast
Issued by NWS

Home | Current Version | Previous Version | Graphics & Text | Print | Product List | Glossary On
Versions: 1 2 3 4 5 6 7 8 9 10 11 12 13 14 15 16 17 18 19 20 21 22
000
FTUS43 KGRB 011724
TAFCWA
TAF
KCWA 011724Z 0118/0218 19007KT P6SM SCT020 BKN035
     FM012100 22009KT P6SM SCT035 SCT250
     FM020100 VRB03KT P6SM SCT250
     FM020400 VRB02KT 5SM BR SCT120 BKN250
     FM020900 VRB02KT 3SM BR SCT003 SCT015 BKN120
      TEMPO 0209/0213 1SM BR BKN003
     FM021400 29004KT P6SM SCT015 BKN100 PROB30 0214/0218 5SM -SHRA
      BR BKN015=

USA.gov is the U.S. government's official web portal to all federal, state and local government web resources and services.